Erly, Pennsylvania
Current Conditions -  °F | °C
As of 4:22 AM on Monday 24 Nov 2014 (Local Time) from KCXY Reporting Station
Moderate Rain Moderate Rain  
Wind Chill: 61°   Ceiling: 1400
Heat Index: 61°   Visibility: 2.5mi
Dew Point: 58°   Wind: 8mph
Humidity: 90%   Direction: 180°S
Pressure: 29.61"   Gusts: NA
Location:  40.3632°N, 77.2671°W
Report Text: KCXY 240922Z AUTO 18007KT 2 1/2SM RA BR FEW009 OVC014 16/14 A2961 RMK AO2 P0004 T01610144
Loading
Personal Weather Stations






























Interactive Weather Map New forecast layout! Learn more

10-Day Weather Forecast

Advertisements
Track Severe Weather on mobile